Weather History for KISQ - February, 2013

Change the Weather History Date:

Monday, February 18, 2013

  Actual Average Record
Temperature  
Mean Temperature 25 °F -  
Max Temperature 35 °F 28 °F 42 °F (1949)
Min Temperature 15 °F 12 °F -22 °F (1979)
Degree Days  
Heating Degree Days 40    
Moisture  
Dew Point 24 °F    
Average Humidity 78    
Maximum Humidity 87    
Minimum Humidity 69    
Precipitation  
Precipitation 0.00 in - - ()
Sea Level Pressure  
Sea Level Pressure 29.71 in    
Wind  
Wind Speed 12 mph (SE)    
Max Wind Speed 21 mph    
Max Gust Speed 26 mph    
Visibility 9 miles    
Events Snow    
Averages and records for this station are not official NWS values.
T = Trace of Precipitation, MM = Missing Value Source: NWS Daily Summary

Daily Weather History Graph

Daily Weather History Graph

Search for Another Location

Airport or City:

Trip Planner

Search our weather history database for the weather conditions in past years. The results will help you decide how hot, cold, wet, or windy it might be!

Date:

Astronomy

Feb. 18, 2013 Rise Set
Actual Time 7:42 AM EST 6:15 PM EST
Civil Twilight 7:11 AM EST 6:46 PM EST
Nautical Twilight 6:36 AM EST 7:21 PM EST
Astronomical Twilight 6:02 AM EST 7:55 PM EST
Moon 11:51 AM EST (2/18) 2:30 AM EST (2/18)
Length of Visible Light 11h 34m
Length of Day
10h 33m
First Quarter, 58% of the Moon is Illuminated
Feb 18
First Quarter
Feb 25
Full
Mar 4
Last Quarter
Mar 11
New
Mar 19
First Quarter

Hourly Weather History & Observations

Time (EST) Temp. Windchill Dew Point Humidity Pressure Visibility Wind Dir Wind Speed Gust Speed Precip Events Conditions
12:14 AM 15.8 °F - 8.6 °F 73% 30.01 in 10.0 mi Calm Calm - N/A   Overcast
12:35 AM 15.8 °F - 8.6 °F 73% 30.01 in 10.0 mi Calm Calm - N/A   Overcast
1:14 AM 17.6 °F - 10.4 °F 73% 29.99 in 10.0 mi Calm Calm - N/A   Overcast
1:35 AM 26.6 °F 19.1 °F 21.2 °F 80% 29.99 in 10.0 mi SSW 6.9 mph 17.3 mph N/A   Overcast
1:54 AM 26.6 °F 16.8 °F 21.2 °F 80% 29.98 in 10.0 mi SSW 10.4 mph 16.1 mph N/A   Overcast
2:14 AM 26.6 °F 13.8 °F 23.0 °F 86% 29.97 in 10.0 mi South 17.3 mph 23.0 mph N/A   Overcast
2:35 AM 26.6 °F 13.8 °F 21.2 °F 80% 29.97 in 10.0 mi South 17.3 mph 24.2 mph N/A   Overcast
2:54 AM 26.6 °F 14.3 °F 23.0 °F 86% 29.97 in 10.0 mi South 16.1 mph 20.7 mph N/A   Overcast
3:15 AM 28.4 °F 16.2 °F 23.0 °F 80% 29.97 in 10.0 mi South 17.3 mph 23.0 mph N/A   Overcast
3:34 AM 28.4 °F 16.2 °F 23.0 °F 80% 29.96 in 10.0 mi South 17.3 mph 21.9 mph N/A   Overcast
3:55 AM 26.6 °F 13.4 °F 23.0 °F 86% 29.95 in 4.0 mi South 18.4 mph - N/A Snow Light Snow
4:14 AM 26.6 °F 14.7 °F 21.2 °F 80% 29.94 in 10.0 mi SSE 15.0 mph 19.6 mph N/A Snow Light Snow
4:34 AM 26.6 °F 14.7 °F 21.2 °F 80% 29.93 in 10.0 mi SSE 15.0 mph 21.9 mph N/A   Overcast
4:54 AM 28.4 °F 16.6 °F 21.2 °F 74% 29.92 in 10.0 mi SSE 16.1 mph 24.2 mph N/A   Overcast
5:15 AM 28.4 °F 16.2 °F 23.0 °F 80% 29.90 in 7.0 mi SSE 17.3 mph 24.2 mph N/A Snow Light Snow
5:35 AM 28.4 °F 16.2 °F 23.0 °F 80% 29.89 in 4.0 mi SSE 17.3 mph 23.0 mph N/A Snow Light Snow
5:54 AM 26.6 °F 14.3 °F 23.0 °F 86% 29.87 in 1.8 mi SSE 16.1 mph 25.3 mph N/A Snow Light Snow
6:15 AM 26.6 °F 13.4 °F 23.0 °F 86% 29.86 in 1.5 mi SE 18.4 mph 26.5 mph N/A Snow Light Snow
6:34 AM 26.6 °F 14.7 °F 21.2 °F 80% 29.85 in 3.0 mi SE 15.0 mph 23.0 mph N/A Snow Light Snow
6:54 AM 26.6 °F 13.8 °F 21.2 °F 80% 29.85 in 10.0 mi SSE 17.3 mph 24.2 mph N/A Snow Light Snow
7:15 AM 26.6 °F 13.8 °F 21.2 °F 80% 29.83 in 10.0 mi SE 17.3 mph - N/A Snow Light Snow
7:34 AM 26.6 °F 12.7 °F 23.0 °F 86% 29.81 in 10.0 mi SE 20.7 mph 26.5 mph N/A   Overcast
7:55 AM 26.6 °F 13.4 °F 23.0 °F 86% 29.80 in 10.0 mi SE 18.4 mph 25.3 mph N/A   Overcast
8:15 AM 26.6 °F 13.1 °F 23.0 °F 86% 29.80 in 10.0 mi SE 19.6 mph 26.5 mph N/A   Overcast
8:34 AM 28.4 °F 15.4 °F 21.2 °F 74% 29.81 in 10.0 mi SE 19.6 mph - N/A   Overcast
9:14 AM 28.4 °F 17.0 °F 21.2 °F 74% 29.78 in 10.0 mi SE 15.0 mph 23.0 mph N/A   Overcast
9:34 AM 28.4 °F 16.2 °F 21.2 °F 74% 29.78 in 10.0 mi SSE 17.3 mph 25.3 mph N/A   Overcast
9:55 AM 28.4 °F 17.0 °F 21.2 °F 74% 29.77 in 10.0 mi SSE 15.0 mph 23.0 mph N/A   Mostly Cloudy
10:14 AM 28.4 °F 15.8 °F 21.2 °F 74% 29.76 in 10.0 mi SE 18.4 mph 24.2 mph N/A   Scattered Clouds
10:35 AM 28.4 °F 17.0 °F 21.2 °F 74% 29.75 in 10.0 mi SE 15.0 mph 24.2 mph N/A   Clear
10:54 AM 28.4 °F 16.2 °F 21.2 °F 74% 29.74 in 10.0 mi SSE 17.3 mph 21.9 mph N/A   Clear
11:14 AM 30.2 °F 18.9 °F 21.2 °F 69% 29.73 in 10.0 mi SSE 16.1 mph 23.0 mph N/A   Scattered Clouds
11:35 AM 30.2 °F 17.8 °F 21.2 °F 69% 29.73 in 10.0 mi SSE 19.6 mph 24.2 mph N/A   Mostly Cloudy
11:54 AM 30.2 °F 18.1 °F 21.2 °F 69% 29.73 in 10.0 mi SSE 18.4 mph 25.3 mph N/A   Overcast
12:15 PM 30.2 °F 17.8 °F 21.2 °F 69% 29.71 in 10.0 mi SSE 19.6 mph 24.2 mph N/A   Overcast
12:34 PM 30.2 °F 18.5 °F 21.2 °F 69% 29.70 in 10.0 mi SSE 17.3 mph 23.0 mph N/A   Overcast
12:55 PM 30.2 °F 18.5 °F 21.2 °F 69% 29.68 in 10.0 mi SE 17.3 mph 23.0 mph N/A   Overcast
1:15 PM 30.2 °F 18.9 °F 23.0 °F 75% 29.67 in 10.0 mi SE 16.1 mph 23.0 mph N/A   Overcast
1:34 PM 30.2 °F 18.9 °F 23.0 °F 75% 29.66 in 10.0 mi SE 16.1 mph - N/A   Overcast
1:55 PM 30.2 °F 18.5 °F 23.0 °F 75% 29.64 in 10.0 mi SE 17.3 mph 24.2 mph N/A   Overcast
2:14 PM 30.2 °F 18.5 °F 21.2 °F 69% 29.64 in 10.0 mi SE 17.3 mph 23.0 mph N/A   Overcast
2:34 PM 32.0 °F 21.2 °F 23.0 °F 69% 29.63 in 10.0 mi SE 16.1 mph 21.9 mph N/A   Overcast
2:54 PM 32.0 °F 20.1 °F 23.0 °F 69% 29.61 in 10.0 mi SE 19.6 mph 24.2 mph N/A   Overcast
3:15 PM 32.0 °F 20.5 °F 24.8 °F 75% 29.61 in 10.0 mi SE 18.4 mph 21.9 mph N/A   Overcast
3:35 PM 33.8 °F 23.2 °F 24.8 °F 70% 29.60 in 10.0 mi SE 17.3 mph 23.0 mph N/A   Overcast
3:54 PM 33.8 °F 24.3 °F 24.8 °F 70% 29.60 in 10.0 mi SE 13.8 mph 21.9 mph N/A   Overcast
4:15 PM 33.8 °F 24.3 °F 24.8 °F 70% 29.59 in 10.0 mi SE 13.8 mph 19.6 mph N/A   Overcast
4:34 PM 33.8 °F 23.5 °F 24.8 °F 70% 29.59 in 10.0 mi SE 16.1 mph 20.7 mph N/A   Overcast
4:54 PM 33.8 °F 24.8 °F 26.6 °F 75% 29.58 in 10.0 mi SE 12.7 mph 19.6 mph N/A   Overcast
5:15 PM 33.8 °F 25.3 °F 26.6 °F 75% 29.57 in 10.0 mi SE 11.5 mph 19.6 mph N/A   Overcast
5:34 PM 33.8 °F 25.3 °F 26.6 °F 75% 29.57 in 10.0 mi SE 11.5 mph 17.3 mph N/A   Overcast
6:15 PM 33.8 °F 26.4 °F 26.6 °F 75% 29.56 in 10.0 mi ESE 9.2 mph - N/A   Overcast
6:34 PM 33.8 °F 24.8 °F 28.4 °F 81% 29.54 in 10.0 mi ESE 12.7 mph - N/A   Overcast
6:55 PM 33.8 °F 24.3 °F 28.4 °F 81% 29.52 in 10.0 mi ESE 13.8 mph 19.6 mph N/A   Overcast
7:14 PM 33.8 °F 24.3 °F 28.4 °F 81% 29.51 in 10.0 mi ESE 13.8 mph - N/A   Overcast
7:35 PM 33.8 °F 25.8 °F 28.4 °F 81% 29.53 in 10.0 mi ESE 10.4 mph - N/A   Overcast
7:55 PM 33.8 °F 25.8 °F 28.4 °F 81% 29.52 in 10.0 mi ESE 10.4 mph - N/A Snow Light Snow
8:14 PM 33.8 °F 25.3 °F 28.4 °F 81% 29.50 in 10.0 mi ESE 11.5 mph 17.3 mph N/A   Overcast
8:34 PM 35.6 °F 28.0 °F 28.4 °F 75% 29.50 in 10.0 mi ESE 10.4 mph 18.4 mph N/A Snow Light Snow
8:54 PM 35.6 °F 28.6 °F 30.2 °F 81% 29.49 in 4.0 mi ESE 9.2 mph - N/A Snow Light Snow
9:15 PM 33.8 °F 27.7 °F 30.2 °F 87% 29.49 in 7.0 mi ESE 6.9 mph - N/A Snow Light Snow
9:34 PM 33.8 °F 28.6 °F 30.2 °F 87% 29.48 in 5.0 mi ESE 5.8 mph - N/A Snow Light Snow
9:55 PM 33.8 °F - 30.2 °F 87% 29.47 in 7.0 mi Calm Calm - N/A Snow Light Snow
10:15 PM 33.8 °F 29.6 °F 30.2 °F 87% 29.46 in 10.0 mi ESE 4.6 mph - N/A Snow Light Snow
10:34 PM 33.8 °F 28.6 °F 30.2 °F 87% 29.44 in 7.0 mi ESE 5.8 mph - N/A Snow Light Snow
11:15 PM 33.8 °F 27.0 °F 30.2 °F 87% 29.42 in 7.0 mi ESE 8.1 mph - N/A Snow Light Snow
11:34 PM 33.8 °F 28.6 °F 30.2 °F 87% 29.41 in 2.5 mi East 5.8 mph - N/A Snow Light Snow
11:55 PM 33.8 °F 28.6 °F 30.2 °F 87% 29.39 in 1.5 mi East 5.8 mph - N/A Snow Light Snow